Terminal Aerodrome Forecast
Issued by NWS

Home | Current Version | Previous Version | Text Only | Print | Product List | Glossary On
Versions: 1 2 3 4 5 6 7 8 9 10 11 12 13 14 15 16 17 18 19 20 21 22 23 24 25 26 27 28 29 30 31 32 33 34 35 36 37 38 39 40 41 42 43 44 45
000
FTUS42 KGSP 060106 AAC
TAFHKY
TAF AMD
KHKY 060106Z 0601/0624 01010G18KT P6SM OVC040
     FM060600 01007KT P6SM BKN050
     FM060900 01005KT P6SM SCT250
     FM061900 10003KT P6SM FEW250
     FM062000 17003KT P6SM FEW250=

USA.gov is the U.S. government's official web portal to all federal, state and local government web resources and services.